createdAt,value
2024-01-31T00:01:34.991Z,100.00
2024-01-31T00:06:36.750Z,100.00
2024-01-31T00:11:38.413Z,100.00
2024-01-31T00:16:40.163Z,100.00
2024-01-31T00:21:43.305Z,100.00
2024-01-31T00:26:45.093Z,100.00
2024-01-31T00:31:46.789Z,99.59
2024-01-31T00:36:48.478Z,99.28
2024-01-31T00:41:51.609Z,99.78
2024-01-31T00:46:53.493Z,100.00
2024-01-31T00:51:55.260Z,99.61
2024-01-31T00:56:56.980Z,100.00
2024-01-31T01:01:58.674Z,100.00
2024-01-31T01:07:00.507Z,100.00
2024-01-31T01:12:03.621Z,100.00
2024-01-31T01:17:05.473Z,100.00
2024-01-31T01:22:07.224Z,100.00
2024-01-31T01:27:08.901Z,99.84
2024-01-31T01:32:10.549Z,100.00
2024-01-31T01:37:12.280Z,100.00
2024-01-31T01:42:14.172Z,99.86
2024-01-31T01:47:17.728Z,99.06
2024-01-31T01:52:19.748Z,97.47
2024-01-31T01:57:21.660Z,99.06
2024-01-31T02:02:23.385Z,98.38
2024-01-31T02:07:28.180Z,97.57
2024-01-31T02:12:30.246Z,97.40
2024-01-31T02:17:34.626Z,98.35
2024-01-31T02:22:36.468Z,96.94
2024-01-31T02:27:38.192Z,96.93
2024-01-31T02:32:39.887Z,96.40
2024-01-31T02:37:44.966Z,96.62
2024-01-31T02:42:46.673Z,97.38
2024-01-31T02:47:48.424Z,96.18
2024-01-31T02:52:50.293Z,97.92
2024-01-31T02:57:51.933Z,98.20
2024-01-31T03:02:53.601Z,97.53
2024-01-31T03:07:55.245Z,97.08
2024-01-31T03:12:57.025Z,97.51
2024-01-31T03:17:59.613Z,97.12
2024-01-31T03:23:02.047Z,97.04
2024-01-31T03:28:03.993Z,98.29
2024-01-31T03:33:05.987Z,96.68
2024-01-31T03:38:09.187Z,97.41
2024-01-31T03:43:12.047Z,98.00
2024-01-31T03:48:13.850Z,96.79
2024-01-31T03:53:15.580Z,96.58
2024-01-31T03:58:17.349Z,97.30
2024-01-31T04:03:22.240Z,100.00
2024-01-31T04:08:24.127Z,100.00
2024-01-31T04:13:25.810Z,100.00
2024-01-31T04:18:27.735Z,100.00
2024-01-31T04:23:29.516Z,98.51
2024-01-31T04:28:31.876Z,96.11
2024-01-31T04:33:33.695Z,95.81
2024-01-31T04:38:36.127Z,95.62
2024-01-31T04:43:37.881Z,94.83
2024-01-31T04:48:39.857Z,94.23
2024-01-31T04:53:41.637Z,94.22
2024-01-31T04:58:43.371Z,92.52
2024-01-31T05:03:45.107Z,92.20
2024-01-31T05:08:46.756Z,90.73
2024-01-31T05:13:51.608Z,90.21
2024-01-31T05:18:53.819Z,90.09
2024-01-31T05:23:55.468Z,90.67
2024-01-31T05:28:57.107Z,90.79
2024-01-31T05:33:58.833Z,92.26
2024-01-31T05:39:00.608Z,93.21
2024-01-31T05:44:02.314Z,94.68
2024-01-31T05:49:04.312Z,96.45
2024-01-31T05:54:06.119Z,97.42
2024-01-31T05:59:09.857Z,98.51
2024-01-31T06:04:11.596Z,99.63
2024-01-31T06:09:13.817Z,99.75
2024-01-31T06:14:15.586Z,98.19
2024-01-31T06:19:17.268Z,96.71
2024-01-31T06:24:18.956Z,94.39
2024-01-31T06:29:20.728Z,93.45
2024-01-31T06:34:22.905Z,94.60
2024-01-31T06:39:24.680Z,93.90
2024-01-31T06:44:27.049Z,94.40
2024-01-31T06:49:29.050Z,95.76
2024-01-31T06:54:30.842Z,95.11
2024-01-31T06:59:32.549Z,94.52
2024-01-31T07:04:34.328Z,94.41
2024-01-31T07:09:36.099Z,95.61
2024-01-31T07:14:37.784Z,96.98
2024-01-31T07:19:46.198Z,95.80
2024-01-31T07:24:47.913Z,94.05
2024-01-31T07:29:49.824Z,92.81
2024-01-31T07:34:51.537Z,91.91
2024-01-31T07:39:58.666Z,91.29
2024-01-31T07:45:00.413Z,90.10
2024-01-31T07:50:02.302Z,89.77
2024-01-31T07:55:06.703Z,88.67
2024-01-31T08:00:08.950Z,88.34
2024-01-31T08:05:10.714Z,88.39
2024-01-31T08:10:13.823Z,87.80
2024-01-31T08:15:15.601Z,87.19
2024-01-31T08:20:18.225Z,87.03
2024-01-31T08:25:20.266Z,87.32
2024-01-31T08:30:22.596Z,86.86
2024-01-31T08:35:24.612Z,87.31
2024-01-31T08:40:26.390Z,87.13
2024-01-31T08:45:28.084Z,86.37
2024-01-31T08:50:29.900Z,86.16
2024-01-31T08:55:31.895Z,85.27
2024-01-31T09:00:33.743Z,86.60
2024-01-31T09:05:35.759Z,87.21
2024-01-31T09:10:37.728Z,87.19
2024-01-31T09:15:43.388Z,87.31
2024-01-31T09:21:01.346Z,86.68
2024-01-31T09:26:16.159Z,87.03
2024-01-31T09:31:28.764Z,87.05
2024-01-31T09:36:31.871Z,87.96
2024-01-31T09:41:34.175Z,88.71
2024-01-31T09:46:36.890Z,88.62
2024-01-31T09:51:38.975Z,87.39
2024-01-31T09:56:49.129Z,87.15
2024-01-31T10:02:16.336Z,88.50
2024-01-31T10:07:54.007Z,87.60
2024-01-31T10:12:58.921Z,88.78
2024-01-31T10:18:05.653Z,89.28
2024-01-31T10:23:16.427Z,88.59
2024-01-31T10:28:24.003Z,88.92
2024-01-31T10:33:27.560Z,89.30
2024-01-31T10:38:39.539Z,88.57
2024-01-31T10:43:44.457Z,88.64
2024-01-31T10:48:49.494Z,88.95
2024-01-31T10:54:00.129Z,88.56
2024-01-31T10:59:08.859Z,88.97
2024-01-31T11:04:13.690Z,89.56
2024-01-31T11:09:24.712Z,90.21
2024-01-31T11:14:36.943Z,90.31
2024-01-31T11:19:48.869Z,90.87
2024-01-31T11:24:57.312Z,91.45
2024-01-31T11:29:59.225Z,91.22
2024-01-31T11:35:10.012Z,90.71
2024-01-31T11:40:13.968Z,90.91
2024-01-31T11:45:17.991Z,91.11
2024-01-31T11:50:21.210Z,91.06
2024-01-31T11:55:26.422Z,93.13
2024-01-31T12:00:35.500Z,94.77
2024-01-31T12:05:38.662Z,94.92
2024-01-31T12:10:42.990Z,95.16
2024-01-31T12:15:50.311Z,94.62
2024-01-31T12:21:07.005Z,94.60
2024-01-31T12:26:09.441Z,96.17
2024-01-31T12:31:11.229Z,96.58
2024-01-31T12:36:13.042Z,97.05
2024-01-31T12:41:15.422Z,97.01
2024-01-31T12:46:18.156Z,96.22
2024-01-31T12:51:19.796Z,95.21
2024-01-31T12:56:21.548Z,94.37
2024-01-31T13:01:23.277Z,93.71
2024-01-31T13:06:24.980Z,94.01
2024-01-31T13:11:26.949Z,95.00
2024-01-31T13:16:30.223Z,95.02
2024-01-31T13:21:33.164Z,95.23
2024-01-31T13:26:37.003Z,93.71
2024-01-31T13:31:40.080Z,93.79
2024-01-31T13:36:42.224Z,94.15
2024-01-31T13:41:44.099Z,92.83
2024-01-31T13:46:45.781Z,93.36
2024-01-31T13:51:47.652Z,92.65
2024-01-31T13:56:49.333Z,92.37
2024-01-31T14:01:51.048Z,91.40
2024-01-31T14:06:52.804Z,89.68
2024-01-31T14:11:54.707Z,89.65
2024-01-31T14:16:57.139Z,88.49
2024-01-31T14:22:05.046Z,88.57
2024-01-31T14:27:14.202Z,88.43
2024-01-31T14:32:15.910Z,86.23
2024-01-31T14:37:17.610Z,83.25
2024-01-31T14:42:19.294Z,83.00
2024-01-31T14:47:20.984Z,82.66
2024-01-31T14:52:24.535Z,83.31
2024-01-31T14:57:26.275Z,84.06
2024-01-31T15:02:28.015Z,83.46
2024-01-31T15:07:31.100Z,84.12
2024-01-31T15:12:34.110Z,84.09
2024-01-31T15:17:36.104Z,84.06
2024-01-31T15:22:37.948Z,83.74
2024-01-31T15:27:40.246Z,84.42
2024-01-31T15:32:44.169Z,84.23
2024-01-31T15:37:48.427Z,84.54
2024-01-31T15:42:50.079Z,84.40
2024-01-31T15:47:51.947Z,84.04
2024-01-31T15:52:53.750Z,83.55
2024-01-31T15:57:55.407Z,83.89
2024-01-31T16:02:57.296Z,85.04
2024-01-31T16:07:59.063Z,84.14
2024-01-31T16:13:00.822Z,83.73
2024-01-31T16:18:02.771Z,81.25
2024-01-31T16:23:05.344Z,81.36
2024-01-31T16:28:07.297Z,80.82
2024-01-31T16:33:09.065Z,80.56
2024-01-31T16:38:12.208Z,80.84
2024-01-31T16:43:13.860Z,81.57
2024-01-31T16:48:15.904Z,82.43
2024-01-31T16:53:17.661Z,81.64
2024-01-31T16:58:19.304Z,81.85
2024-01-31T17:03:21.813Z,83.03
2024-01-31T17:08:26.125Z,82.92
2024-01-31T17:13:27.866Z,84.55
2024-01-31T17:18:29.713Z,84.60
2024-01-31T17:23:35.755Z,83.82
2024-01-31T17:28:37.526Z,85.89
2024-01-31T17:33:39.272Z,85.90
2024-01-31T17:38:41.342Z,85.54
2024-01-31T17:43:43.016Z,86.69
2024-01-31T17:48:44.754Z,86.57
2024-01-31T17:53:46.514Z,87.19
2024-01-31T17:58:49.508Z,89.48
2024-01-31T18:03:51.209Z,89.86
2024-01-31T18:08:52.967Z,90.20
2024-01-31T18:13:54.674Z,90.95
2024-01-31T18:19:02.499Z,91.11
2024-01-31T18:24:06.162Z,90.45
2024-01-31T18:29:07.934Z,91.55
2024-01-31T18:34:09.985Z,92.45
2024-01-31T18:39:12.030Z,93.14
2024-01-31T18:44:13.751Z,93.39
2024-01-31T18:49:18.905Z,92.64
2024-01-31T18:54:20.842Z,93.22
2024-01-31T18:59:22.519Z,94.58
2024-01-31T19:04:24.174Z,95.27
2024-01-31T19:09:25.854Z,96.80
2024-01-31T19:14:28.931Z,98.47
2024-01-31T19:19:30.996Z,100.00
2024-01-31T19:24:35.133Z,100.00
2024-01-31T19:29:36.952Z,100.00
2024-01-31T19:34:38.774Z,100.00
2024-01-31T19:39:40.454Z,100.00
2024-01-31T19:44:42.134Z,100.00
2024-01-31T19:49:43.838Z,100.00
2024-01-31T19:54:45.612Z,100.00
2024-01-31T19:59:47.348Z,100.00
2024-01-31T20:04:49.361Z,100.00
2024-01-31T20:09:51.013Z,100.00
2024-01-31T20:14:52.721Z,100.00
2024-01-31T20:19:54.438Z,100.00
2024-01-31T20:24:56.867Z,100.00
2024-01-31T20:29:58.840Z,100.00
2024-01-31T20:35:00.681Z,100.00
2024-01-31T20:40:02.450Z,100.00
2024-01-31T20:45:04.861Z,100.00
2024-01-31T20:50:08.659Z,100.00
2024-01-31T20:55:10.532Z,100.00
2024-01-31T21:00:12.775Z,100.00
2024-01-31T21:05:14.653Z,100.00
2024-01-31T21:10:17.364Z,100.00
2024-01-31T21:15:19.064Z,100.00
2024-01-31T21:20:20.763Z,100.00
2024-01-31T21:25:22.577Z,100.00
2024-01-31T21:30:24.249Z,100.00
2024-01-31T21:35:25.926Z,100.00
2024-01-31T21:40:27.663Z,100.00
2024-01-31T21:45:29.317Z,100.00
2024-01-31T21:50:31.136Z,100.00
2024-01-31T21:55:32.960Z,100.00
2024-01-31T22:00:34.682Z,100.00
2024-01-31T22:05:37.251Z,100.00
2024-01-31T22:10:39.082Z,100.00
2024-01-31T22:15:40.790Z,100.00
2024-01-31T22:20:42.526Z,100.00
2024-01-31T22:25:45.366Z,100.00
2024-01-31T22:30:47.040Z,100.00
2024-01-31T22:35:48.697Z,100.00
2024-01-31T22:40:50.365Z,100.00
2024-01-31T22:45:51.991Z,100.00
2024-01-31T22:50:53.661Z,100.00
2024-01-31T22:55:55.336Z,100.00
2024-01-31T23:00:57.603Z,100.00
2024-01-31T23:05:59.540Z,100.00
2024-01-31T23:11:01.341Z,100.00
2024-01-31T23:16:03.213Z,100.00
2024-01-31T23:21:08.451Z,100.00
2024-01-31T23:26:10.557Z,100.00
2024-01-31T23:31:12.321Z,100.00
2024-01-31T23:36:14.120Z,100.00
2024-01-31T23:41:15.855Z,100.00
2024-01-31T23:46:18.932Z,100.00
2024-01-31T23:51:20.732Z,100.00
2024-01-31T23:56:23.413Z,100.00
